Time;durP1;ratioP1;P1;durP2;ratioP2;P2;SDS_P1;SDS_P2;PMS_P1;PMS_P2;Temp;Humidity;BMP_temperature;BMP_pressure;BME280_temperature;BME280_humidity;BME280_pressure;Samples;Min_cycle;Max_cycle;Signal;HPM_P1;HPM_P2
2024/01/24 00:01:22;;;;;;;11.35;1.25;;;;;;;;;;5082519;28;20051;-76
2024/01/24 00:03:53;;;;;;;9.63;1.42;;;;;;;;;;5081984;28;20055;-76
2024/01/24 00:06:24;;;;;;;8.73;1.10;;;;;;;;;;5082561;28;20047;-75
2024/01/24 00:08:54;;;;;;;15.35;1.27;;;;;;;;;;5083041;28;20413;-75
2024/01/24 00:11:25;;;;;;;13.27;1.33;;;;;;;;;;5082388;28;20498;-75
2024/01/24 00:13:56;;;;;;;7.18;1.20;;;;;;;;;;5081141;28;20044;-77
2024/01/24 00:16:27;;;;;;;5.00;0.88;;;;;;;;;;5080477;28;20450;-80
2024/01/24 00:18:57;;;;;;;11.77;1.30;;;;;;;;;;5082047;28;20044;-75
2024/01/24 00:21:28;;;;;;;8.82;1.60;;;;;;;;;;5082282;28;20075;-75
2024/01/24 00:24:00;;;;;;;12.55;1.17;;;;;;;;;;5082060;28;20414;-75
2024/01/24 00:26:30;;;;;;;5.00;1.00;;;;;;;;;;5081175;28;20059;-75
2024/01/24 00:29:01;;;;;;;7.22;1.00;;;;;;;;;;5081872;28;20413;-75
2024/01/24 00:31:35;;;;;;;15.60;1.48;;;;;;;;;;5082135;28;20415;-75
2024/01/24 00:34:06;;;;;;;11.25;1.40;;;;;;;;;;5081904;28;20047;-75
2024/01/24 00:36:36;;;;;;;9.77;1.25;;;;;;;;;;5082160;28;20059;-75
2024/01/24 00:39:07;;;;;;;10.95;1.35;;;;;;;;;;5081815;28;20051;-75
2024/01/24 00:41:41;;;;;;;11.68;1.05;;;;;;;;;;5097153;28;20502;-75
2024/01/24 00:44:13;;;;;;;11.35;1.10;;;;;;;;;;5107866;28;20047;-75
2024/01/24 00:46:44;;;;;;;13.30;1.13;;;;;;;;;;5110806;28;20653;-76
2024/01/24 00:49:16;;;;;;;10.60;0.98;;;;;;;;;;5111602;28;20039;-75
2024/01/24 00:51:47;;;;;;;10.40;1.23;;;;;;;;;;5113201;28;20043;-75
2024/01/24 00:54:18;;;;;;;8.27;1.55;;;;;;;;;;5112464;28;20497;-76
2024/01/24 00:56:48;;;;;;;13.88;1.48;;;;;;;;;;5114810;28;20047;-75
2024/01/24 00:59:19;;;;;;;6.95;1.13;;;;;;;;;;5122944;28;20047;-75
2024/01/24 01:01:50;;;;;;;7.22;1.48;;;;;;;;;;5123380;28;20055;-75
2024/01/24 01:04:21;;;;;;;11.75;1.65;;;;;;;;;;5122735;28;20051;-75
2024/01/24 01:06:52;;;;;;;7.05;0.85;;;;;;;;;;5122821;28;20040;-75
2024/01/24 01:09:22;;;;;;;9.95;0.98;;;;;;;;;;5122200;28;20047;-76
2024/01/24 01:11:52;;;;;;;12.85;1.77;;;;;;;;;;5120915;27;20612;-78
2024/01/24 01:14:23;;;;;;;10.15;0.98;;;;;;;;;;5119075;28;20078;-74
2024/01/24 01:16:54;;;;;;;12.05;1.38;;;;;;;;;;5121278;28;20046;-75
2024/01/24 01:19:23;;;;;;;12.27;1.05;;;;;;;;;;5121789;28;20062;-75
2024/01/24 01:21:54;;;;;;;14.13;1.50;;;;;;;;;;5122121;28;20182;-75
2024/01/24 01:24:24;;;;;;;7.38;0.88;;;;;;;;;;5121115;27;20051;-74
2024/01/24 01:26:55;;;;;;;11.10;1.40;;;;;;;;;;5126288;27;20043;-74
2024/01/24 01:29:25;;;;;;;7.80;1.33;;;;;;;;;;5126598;27;20059;-76
2024/01/24 01:31:56;;;;;;;8.95;2.00;;;;;;;;;;5126869;27;20062;-74
2024/01/24 01:34:26;;;;;;;8.38;1.20;;;;;;;;;;5126532;27;20058;-74
2024/01/24 01:36:58;;;;;;;7.32;1.02;;;;;;;;;;5125900;27;20054;-75
2024/01/24 01:39:29;;;;;;;8.50;1.08;;;;;;;;;;5125982;27;20529;-75
2024/01/24 01:41:59;;;;;;;9.75;1.00;;;;;;;;;;5126123;27;20057;-75
2024/01/24 01:44:29;;;;;;;11.32;1.02;;;;;;;;;;5125860;27;20043;-74
2024/01/24 01:47:02;;;;;;;12.02;1.17;;;;;;;;;;5125904;27;20051;-74
2024/01/24 01:49:34;;;;;;;7.50;0.75;;;;;;;;;;5126068;27;20047;-74
2024/01/24 01:52:05;;;;;;;8.70;1.00;;;;;;;;;;5125463;27;20039;-75
2024/01/24 01:54:38;;;;;;;8.57;1.40;;;;;;;;;;5124280;27;20051;-74
2024/01/24 01:57:11;;;;;;;10.02;1.20;;;;;;;;;;5125926;27;20408;-78
2024/01/24 01:59:42;;;;;;;8.48;1.17;;;;;;;;;;5125960;27;20066;-74
2024/01/24 02:02:15;;;;;;;10.15;1.20;;;;;;;;;;5125704;27;20623;-75
2024/01/24 02:04:46;;;;;;;9.50;1.13;;;;;;;;;;5125410;27;20047;-76
2024/01/24 02:07:18;;;;;;;8.07;0.93;;;;;;;;;;5125451;27;20047;-74
2024/01/24 02:09:50;;;;;;;10.57;1.15;;;;;;;;;;5123871;27;20047;-74
2024/01/24 02:12:20;;;;;;;9.70;1.00;;;;;;;;;;5125716;27;20413;-75
2024/01/24 02:14:51;;;;;;;8.38;0.93;;;;;;;;;;5125559;27;20063;-75
2024/01/24 02:17:22;;;;;;;9.45;0.98;;;;;;;;;;5125096;27;20058;-75
2024/01/24 02:19:54;;;;;;;13.40;1.33;;;;;;;;;;5125742;27;20417;-75
2024/01/24 02:22:24;;;;;;;7.53;1.00;;;;;;;;;;5125255;27;20047;-77
2024/01/24 02:24:54;;;;;;;8.27;1.00;;;;;;;;;;5126050;27;20847;-75
2024/01/24 02:27:25;;;;;;;12.23;1.88;;;;;;;;;;5125505;27;20525;-75
2024/01/24 02:29:59;;;;;;;7.30;0.93;;;;;;;;;;5124763;27;20043;-74
2024/01/24 02:32:32;;;;;;;9.27;1.05;;;;;;;;;;5125013;27;20055;-74
2024/01/24 02:35:04;;;;;;;8.32;1.05;;;;;;;;;;5125260;27;20051;-76
2024/01/24 02:37:34;;;;;;;10.38;0.98;;;;;;;;;;5124327;27;20047;-76
2024/01/24 02:40:07;;;;;;;4.93;0.68;;;;;;;;;;5124793;27;20505;-75
2024/01/24 02:42:38;;;;;;;13.05;1.23;;;;;;;;;;5124873;27;20058;-75
2024/01/24 02:45:08;;;;;;;8.27;1.02;;;;;;;;;;5124833;27;20054;-76
2024/01/24 02:47:41;;;;;;;8.07;1.30;;;;;;;;;;5124619;27;20505;-74
2024/01/24 02:50:12;;;;;;;9.77;1.33;;;;;;;;;;5124217;27;20047;-75
2024/01/24 02:52:43;;;;;;;7.63;1.35;;;;;;;;;;5106245;27;20070;-76
2024/01/24 02:55:16;;;;;;;9.65;1.25;;;;;;;;;;5125138;27;20417;-75
2024/01/24 02:57:47;;;;;;;5.72;1.13;;;;;;;;;;5124865;27;20105;-75
2024/01/24 03:00:18;;;;;;;9.27;0.90;;;;;;;;;;5125063;27;20113;-76
2024/01/24 03:02:49;;;;;;;11.07;1.13;;;;;;;;;;5124500;27;20047;-74
2024/01/24 03:05:20;;;;;;;8.10;1.00;;;;;;;;;;5124443;27;20061;-74
2024/01/24 03:07:51;;;;;;;11.23;1.13;;;;;;;;;;5124743;27;20047;-75
2024/01/24 03:10:25;;;;;;;7.75;0.98;;;;;;;;;;5124205;27;20069;-75
2024/01/24 03:12:55;;;;;;;6.82;0.98;;;;;;;;;;5122074;27;20062;-74
2024/01/24 03:15:25;;;;;;;6.93;1.00;;;;;;;;;;5124296;27;20533;-75
2024/01/24 03:17:56;;;;;;;7.47;1.35;;;;;;;;;;5124679;27;20051;-75
2024/01/24 03:20:27;;;;;;;7.88;1.00;;;;;;;;;;5123981;27;20062;-76
2024/01/24 03:22:58;;;;;;;6.95;1.33;;;;;;;;;;5124205;27;20057;-76
2024/01/24 03:25:32;;;;;;;10.75;1.23;;;;;;;;;;5124167;27;20042;-74
2024/01/24 03:28:02;;;;;;;12.88;1.13;;;;;;;;;;5123878;27;20047;-74
2024/01/24 03:30:33;;;;;;;7.35;1.05;;;;;;;;;;5123751;27;20409;-75
2024/01/24 03:33:05;;;;;;;11.82;1.10;;;;;;;;;;5124086;27;20050;-75
2024/01/24 03:35:35;;;;;;;11.70;1.00;;;;;;;;;;5123928;27;20043;-75
2024/01/24 03:38:06;;;;;;;8.38;1.00;;;;;;;;;;5123953;27;20069;-75
2024/01/24 03:40:36;;;;;;;11.73;1.15;;;;;;;;;;5124756;27;20035;-75
2024/01/24 03:43:07;;;;;;;7.75;1.42;;;;;;;;;;5124114;27;20043;-75
2024/01/24 03:45:38;;;;;;;5.65;0.77;;;;;;;;;;5124117;27;20050;-75
2024/01/24 03:48:09;;;;;;;6.65;0.80;;;;;;;;;;5121677;27;20523;-75
2024/01/24 03:50:40;;;;;;;11.57;1.25;;;;;;;;;;5123675;27;20046;-74
2024/01/24 03:53:11;;;;;;;4.97;1.00;;;;;;;;;;5123647;27;20047;-74
2024/01/24 03:55:41;;;;;;;4.80;1.17;;;;;;;;;;5123374;27;20398;-75
2024/01/24 03:58:12;;;;;;;11.57;1.30;;;;;;;;;;5123519;27;20054;-75
2024/01/24 04:00:43;;;;;;;5.72;0.80;;;;;;;;;;5123986;27;20051;-74
2024/01/24 04:03:15;;;;;;;5.18;0.85;;;;;;;;;;5123582;27;20391;-75
2024/01/24 04:05:45;;;;;;;6.50;0.80;;;;;;;;;;5123432;27;20046;-75
2024/01/24 04:08:16;;;;;;;7.75;0.85;;;;;;;;;;5123446;27;20034;-75
2024/01/24 04:10:47;;;;;;;12.13;1.25;;;;;;;;;;5123239;27;20799;-75
2024/01/24 04:13:17;;;;;;;8.32;0.90;;;;;;;;;;5123188;27;20043;-75
2024/01/24 04:15:47;;;;;;;6.68;1.13;;;;;;;;;;5121303;27;20421;-75
2024/01/24 04:18:18;;;;;;;7.13;1.30;;;;;;;;;;5121811;27;20043;-75
2024/01/24 04:20:49;;;;;;;13.68;1.00;;;;;;;;;;5122365;27;20517;-74
2024/01/24 04:23:21;;;;;;;7.13;1.55;;;;;;;;;;5123914;27;20047;-74
2024/01/24 04:25:51;;;;;;;8.98;1.48;;;;;;;;;;5122969;27;21037;-75
2024/01/24 04:28:21;;;;;;;6.47;1.45;;;;;;;;;;5122776;27;20524;-76
2024/01/24 04:30:52;;;;;;;14.15;1.63;;;;;;;;;;5122316;28;20074;-74
2024/01/24 04:33:22;;;;;;;7.15;1.35;;;;;;;;;;5122954;28;20054;-75
2024/01/24 04:35:55;;;;;;;8.88;1.02;;;;;;;;;;5122993;28;20504;-76
2024/01/24 04:38:25;;;;;;;6.50;0.90;;;;;;;;;;5122788;28;20043;-76
2024/01/24 04:40:56;;;;;;;10.27;1.45;;;;;;;;;;5123299;28;20057;-75
2024/01/24 04:43:28;;;;;;;5.07;0.85;;;;;;;;;;5123034;28;20047;-75
2024/01/24 04:45:58;;;;;;;7.43;1.23;;;;;;;;;;5123110;28;20058;-75
2024/01/24 04:48:29;;;;;;;6.53;1.10;;;;;;;;;;5122657;28;20043;-75
2024/01/24 04:51:00;;;;;;;13.88;1.75;;;;;;;;;;5122252;28;20072;-75
2024/01/24 04:53:31;;;;;;;10.43;1.02;;;;;;;;;;5122817;28;20416;-75
2024/01/24 04:56:02;;;;;;;12.23;2.03;;;;;;;;;;5122963;28;20055;-74
2024/01/24 04:58:32;;;;;;;6.38;1.05;;;;;;;;;;5122579;28;20050;-75
2024/01/24 05:01:03;;;;;;;7.90;1.23;;;;;;;;;;5125152;27;20046;-74
2024/01/24 05:03:34;;;;;;;5.60;1.10;;;;;;;;;;5126654;27;20055;-74
2024/01/24 05:06:06;;;;;;;8.98;1.42;;;;;;;;;;5126573;27;20047;-75
2024/01/24 05:08:40;;;;;;;5.80;0.60;;;;;;;;;;5125303;27;20061;-75
2024/01/24 05:11:11;;;;;;;6.68;0.82;;;;;;;;;;5126781;27;20058;-74
2024/01/24 05:13:41;;;;;;;9.55;1.13;;;;;;;;;;5124265;27;20961;-74
2024/01/24 05:16:12;;;;;;;9.68;1.63;;;;;;;;;;5126776;27;20073;-75
2024/01/24 05:18:42;;;;;;;10.63;1.70;;;;;;;;;;5126846;27;20044;-75
2024/01/24 05:21:13;;;;;;;7.20;0.93;;;;;;;;;;5126699;27;20089;-75
2024/01/24 05:23:45;;;;;;;13.23;1.25;;;;;;;;;;5126516;27;20066;-74
2024/01/24 05:26:18;;;;;;;9.18;1.20;;;;;;;;;;5126524;27;20047;-75
2024/01/24 05:28:48;;;;;;;9.20;1.00;;;;;;;;;;5125314;27;20051;-75
2024/01/24 05:31:19;;;;;;;8.80;0.95;;;;;;;;;;5125976;27;20051;-75
2024/01/24 05:33:50;;;;;;;6.38;1.30;;;;;;;;;;5127121;27;20073;-74
2024/01/24 05:36:21;;;;;;;6.25;0.82;;;;;;;;;;5126291;27;20056;-75
2024/01/24 05:38:51;;;;;;;8.88;1.10;;;;;;;;;;5126002;27;20046;-74
2024/01/24 05:41:22;;;;;;;9.48;1.10;;;;;;;;;;5126201;27;20051;-75
2024/01/24 05:43:54;;;;;;;9.68;1.00;;;;;;;;;;5124753;27;20059;-75
2024/01/24 05:46:24;;;;;;;9.68;1.20;;;;;;;;;;5125273;27;20047;-74
2024/01/24 05:48:55;;;;;;;7.20;0.90;;;;;;;;;;5126088;27;20035;-76
2024/01/24 05:51:26;;;;;;;4.68;0.75;;;;;;;;;;5125745;27;20413;-75
2024/01/24 05:53:56;;;;;;;7.25;0.82;;;;;;;;;;5125100;27;20070;-75
2024/01/24 05:56:27;;;;;;;8.60;0.82;;;;;;;;;;5123994;27;20062;-74
2024/01/24 05:58:57;;;;;;;7.55;1.17;;;;;;;;;;5125864;27;20065;-75
2024/01/24 06:01:28;;;;;;;6.78;0.90;;;;;;;;;;5126024;27;20055;-75
2024/01/24 06:03:59;;;;;;;9.57;1.10;;;;;;;;;;5125893;27;20051;-75
2024/01/24 06:06:29;;;;;;;6.15;0.90;;;;;;;;;;5125862;27;20057;-74
2024/01/24 06:09:00;;;;;;;6.13;1.10;;;;;;;;;;5125415;27;20062;-75
2024/01/24 06:11:30;;;;;;;5.85;1.35;;;;;;;;;;5124682;27;20039;-75
2024/01/24 06:14:01;;;;;;;7.18;0.93;;;;;;;;;;5125983;27;20545;-74
2024/01/24 06:16:31;;;;;;;8.40;1.17;;;;;;;;;;5124929;27;20043;-75
2024/01/24 06:19:01;;;;;;;10.57;1.27;;;;;;;;;;5125227;27;20844;-74
2024/01/24 06:21:32;;;;;;;7.88;1.05;;;;;;;;;;5125245;27;20043;-75
2024/01/24 06:24:03;;;;;;;8.05;0.82;;;;;;;;;;5126053;27;20054;-74
2024/01/24 06:26:33;;;;;;;11.43;1.35;;;;;;;;;;5123714;27;20051;-75
2024/01/24 06:29:04;;;;;;;10.50;0.90;;;;;;;;;;5124699;27;20058;-75
2024/01/24 06:31:34;;;;;;;9.73;1.20;;;;;;;;;;5124646;27;20051;-75
2024/01/24 06:34:04;;;;;;;12.52;1.13;;;;;;;;;;5125234;27;20039;-75
2024/01/24 06:36:35;;;;;;;5.55;1.63;;;;;;;;;;5123115;27;20051;-75
2024/01/24 06:39:07;;;;;;;9.63;1.00;;;;;;;;;;5124729;27;20043;-75
2024/01/24 06:41:37;;;;;;;5.03;0.90;;;;;;;;;;5125424;27;20047;-75
2024/01/24 06:44:07;;;;;;;6.10;0.90;;;;;;;;;;5124887;27;20035;-74
2024/01/24 06:46:42;;;;;;;3.92;1.25;;;;;;;;;;5125171;27;20058;-74
2024/01/24 06:49:13;;;;;;;7.68;0.98;;;;;;;;;;5124736;27;20047;-75
2024/01/24 06:51:45;;;;;;;7.22;1.05;;;;;;;;;;5124927;27;20043;-75
2024/01/24 06:54:17;;;;;;;13.48;1.33;;;;;;;;;;5124601;27;20043;-74
2024/01/24 06:56:48;;;;;;;7.32;1.30;;;;;;;;;;5124092;27;20051;-75
2024/01/24 06:59:20;;;;;;;14.52;1.58;;;;;;;;;;5124759;27;20501;-74
2024/01/24 07:01:50;;;;;;;9.32;1.08;;;;;;;;;;5123273;27;20047;-75
2024/01/24 07:04:20;;;;;;;4.38;0.80;;;;;;;;;;5124984;27;20047;-74
2024/01/24 07:06:52;;;;;;;10.77;0.75;;;;;;;;;;5124284;27;20047;-75
2024/01/24 07:09:23;;;;;;;9.98;1.20;;;;;;;;;;5124363;27;20057;-75
2024/01/24 07:11:54;;;;;;;6.28;1.58;;;;;;;;;;5124720;27;20047;-74
2024/01/24 07:14:24;;;;;;;5.50;0.82;;;;;;;;;;5124581;27;20043;-75
2024/01/24 07:16:55;;;;;;;7.05;0.70;;;;;;;;;;5123709;27;20058;-75
2024/01/24 07:19:28;;;;;;;11.18;1.10;;;;;;;;;;5124148;27;20061;-75
2024/01/24 07:21:59;;;;;;;9.98;1.23;;;;;;;;;;5124109;27;20397;-75
2024/01/24 07:24:32;;;;;;;4.97;0.80;;;;;;;;;;5124077;27;20058;-74
2024/01/24 07:27:04;;;;;;;12.55;1.08;;;;;;;;;;5124053;27;20110;-74
2024/01/24 07:29:35;;;;;;;5.05;1.08;;;;;;;;;;5123989;27;20047;-75
2024/01/24 07:32:05;;;;;;;9.75;1.25;;;;;;;;;;5123854;27;20714;-75
2024/01/24 07:34:38;;;;;;;7.63;1.10;;;;;;;;;;5124277;27;20055;-75
2024/01/24 07:37:09;;;;;;;9.27;1.38;;;;;;;;;;5123932;27;20405;-75
2024/01/24 07:39:41;;;;;;;10.93;1.10;;;;;;;;;;5124697;27;20050;-75
2024/01/24 07:42:11;;;;;;;7.47;1.20;;;;;;;;;;5124012;27;20047;-75
2024/01/24 07:44:41;;;;;;;9.93;1.15;;;;;;;;;;5121625;27;20047;-74
2024/01/24 07:47:12;;;;;;;8.98;0.93;;;;;;;;;;5119393;27;20409;-75
2024/01/24 07:49:43;;;;;;;6.13;0.82;;;;;;;;;;5120731;27;20591;-74
2024/01/24 07:52:14;;;;;;;13.25;1.00;;;;;;;;;;5120408;27;20520;-74
2024/01/24 07:55:05;;;;;;;12.15;1.10;;;;;;;;;;5120407;27;20046;-75
2024/01/24 07:57:37;;;;;;;8.60;1.25;;;;;;;;;;5120805;27;20046;-75
2024/01/24 08:00:16;;;;;;;4.03;0.80;;;;;;;;;;5121029;27;20051;-75
2024/01/24 08:02:47;;;;;;;4.97;0.77;;;;;;;;;;5120555;27;20519;-75
2024/01/24 08:05:22;;;;;;;9.82;1.17;;;;;;;;;;5120616;27;20497;-75
2024/01/24 08:07:53;;;;;;;5.78;0.80;;;;;;;;;;5121052;27;20047;-75
2024/01/24 08:10:25;;;;;;;5.85;0.80;;;;;;;;;;5120736;27;20044;-75
2024/01/24 08:12:57;;;;;;;6.85;1.13;;;;;;;;;;5120421;27;20050;-74
2024/01/24 08:15:28;;;;;;;4.75;0.73;;;;;;;;;;5120812;27;20046;-74
2024/01/24 08:17:58;;;;;;;12.85;1.20;;;;;;;;;;5120325;27;20404;-75
2024/01/24 08:20:30;;;;;;;12.13;1.00;;;;;;;;;;5120782;27;20836;-75
2024/01/24 08:23:00;;;;;;;6.05;0.75;;;;;;;;;;5120469;27;20047;-76
2024/01/24 08:25:30;;;;;;;6.75;1.00;;;;;;;;;;5120682;27;20512;-75
2024/01/24 08:28:01;;;;;;;7.07;0.95;;;;;;;;;;5120132;27;20039;-75
2024/01/24 08:30:33;;;;;;;8.68;1.20;;;;;;;;;;5120355;27;20445;-74
2024/01/24 08:33:03;;;;;;;8.98;1.02;;;;;;;;;;5120110;27;20046;-74
2024/01/24 08:35:35;;;;;;;7.63;0.95;;;;;;;;;;5119986;27;20047;-74
2024/01/24 08:38:06;;;;;;;10.18;1.05;;;;;;;;;;5119523;28;20047;-74
2024/01/24 08:40:39;;;;;;;13.68;1.10;;;;;;;;;;5119697;28;20043;-75
2024/01/24 08:43:09;;;;;;;6.75;1.00;;;;;;;;;;5120094;28;20592;-75
2024/01/24 08:45:39;;;;;;;3.90;1.00;;;;;;;;;;5120392;28;20043;-76
2024/01/24 08:48:10;;;;;;;7.00;0.95;;;;;;;;;;5120215;28;20062;-75
2024/01/24 08:50:42;;;;;;;3.42;0.68;;;;;;;;;;5120385;28;20051;-76
2024/01/24 08:53:13;;;;;;;11.25;1.17;;;;;;;;;;5120100;28;20047;-74
2024/01/24 08:55:43;;;;;;;6.78;0.68;;;;;;;;;;5119998;28;20344;-74
2024/01/24 08:58:14;;;;;;;3.25;0.55;;;;;;;;;;5120205;28;20401;-75
2024/01/24 09:00:45;;;;;;;7.68;0.77;;;;;;;;;;5119570;28;20494;-75
2024/01/24 09:03:16;;;;;;;7.25;0.80;;;;;;;;;;5119668;28;20043;-75
2024/01/24 09:05:47;;;;;;;5.05;0.93;;;;;;;;;;5119846;28;20055;-75
2024/01/24 09:08:19;;;;;;;13.20;1.20;;;;;;;;;;5119485;28;20055;-74
2024/01/24 09:10:50;;;;;;;5.70;0.70;;;;;;;;;;5119930;28;20047;-74
2024/01/24 09:13:23;;;;;;;7.65;0.82;;;;;;;;;;5120091;28;20422;-74
2024/01/24 09:15:53;;;;;;;7.20;1.10;;;;;;;;;;5120225;28;20062;-80
2024/01/24 09:18:23;;;;;;;6.47;0.98;;;;;;;;;;5119827;28;20604;-75
2024/01/24 09:20:54;;;;;;;8.73;1.05;;;;;;;;;;5120020;28;20062;-74
2024/01/24 09:23:24;;;;;;;9.85;0.88;;;;;;;;;;5119457;28;20047;-77
2024/01/24 09:25:55;;;;;;;8.10;1.08;;;;;;;;;;5120456;28;20078;-75
2024/01/24 09:28:26;;;;;;;15.27;1.20;;;;;;;;;;5119882;28;20039;-74
2024/01/24 09:30:57;;;;;;;10.45;1.20;;;;;;;;;;5120419;28;20043;-75
2024/01/24 09:33:27;;;;;;;7.85;1.45;;;;;;;;;;5119413;28;20425;-75
2024/01/24 09:35:57;;;;;;;13.63;1.55;;;;;;;;;;5119868;28;20054;-75
2024/01/24 09:38:28;;;;;;;10.85;1.52;;;;;;;;;;5119775;28;20051;-75
2024/01/24 09:41:00;;;;;;;9.15;1.23;;;;;;;;;;5119767;28;20054;-75
2024/01/24 09:43:32;;;;;;;7.03;1.10;;;;;;;;;;5118357;28;20051;-75
2024/01/24 09:46:06;;;;;;;16.42;1.65;;;;;;;;;;5119591;27;20051;-75
2024/01/24 09:48:36;;;;;;;8.88;1.25;;;;;;;;;;5120955;27;20058;-75
2024/01/24 09:51:08;;;;;;;6.30;0.85;;;;;;;;;;5123132;27;20051;-75
2024/01/24 09:53:39;;;;;;;12.27;1.48;;;;;;;;;;5123521;27;20413;-77
2024/01/24 09:56:11;;;;;;;10.48;1.00;;;;;;;;;;5123167;27;20043;-75
2024/01/24 09:58:42;;;;;;;16.15;2.13;;;;;;;;;;5122815;27;20501;-75
2024/01/24 10:01:13;;;;;;;9.75;1.40;;;;;;;;;;5123100;27;20552;-74
2024/01/24 10:03:45;;;;;;;13.23;1.33;;;;;;;;;;5123016;27;20047;-75
2024/01/24 10:06:16;;;;;;;14.70;2.58;;;;;;;;;;5122235;27;20051;-75
2024/01/24 10:08:46;;;;;;;9.13;1.45;;;;;;;;;;5122290;27;20747;-74
2024/01/24 10:11:18;;;;;;;11.82;1.73;;;;;;;;;;5122513;27;20069;-76
2024/01/24 10:13:50;;;;;;;7.15;1.42;;;;;;;;;;5122174;27;20528;-81
2024/01/24 10:16:21;;;;;;;15.05;1.08;;;;;;;;;;5122142;27;20498;-75
2024/01/24 10:18:50;;;;;;;7.53;1.02;;;;;;;;;;5122452;27;20062;-75
2024/01/24 10:21:21;;;;;;;13.45;1.30;;;;;;;;;;5122356;27;20051;-75
2024/01/24 10:23:57;;;;;;;12.20;1.55;;;;;;;;;;5122217;27;20520;-76
2024/01/24 10:26:29;;;;;;;8.10;0.82;;;;;;;;;;5122926;27;20062;-80
2024/01/24 10:29:00;;;;;;;9.27;1.33;;;;;;;;;;5122111;27;20043;-75
2024/01/24 10:31:31;;;;;;;11.40;1.20;;;;;;;;;;5122672;27;21120;-76
2024/01/24 10:34:07;;;;;;;14.32;1.92;;;;;;;;;;5122606;27;20051;-74
2024/01/24 10:36:40;;;;;;;5.80;1.35;;;;;;;;;;5121731;27;20413;-75
2024/01/24 10:39:16;;;;;;;6.35;0.90;;;;;;;;;;5122296;27;20035;-77
2024/01/24 10:41:52;;;;;;;10.52;1.20;;;;;;;;;;5122124;27;20402;-75
2024/01/24 10:44:25;;;;;;;9.75;1.13;;;;;;;;;;5121999;27;20039;-85
2024/01/24 10:46:56;;;;;;;7.05;1.05;;;;;;;;;;5123279;27;20051;-75
2024/01/24 10:49:29;;;;;;;4.95;1.23;;;;;;;;;;5121621;27;20047;-75
2024/01/24 10:52:00;;;;;;;8.73;1.25;;;;;;;;;;5109198;27;20051;-77
2024/01/24 10:54:34;;;;;;;13.98;1.85;;;;;;;;;;5101891;28;20050;-77
2024/01/24 10:57:07;;;;;;;10.45;1.55;;;;;;;;;;5099737;28;20068;-76
2024/01/24 10:59:39;;;;;;;13.27;1.25;;;;;;;;;;5100395;28;20052;-76
2024/01/24 11:02:11;;;;;;;5.45;1.10;;;;;;;;;;5100712;28;20048;-76
2024/01/24 11:04:43;;;;;;;10.80;1.65;;;;;;;;;;5100594;28;20058;-78
2024/01/24 11:07:21;;;;;;;10.48;2.42;;;;;;;;;;5100318;28;20044;-77
2024/01/24 11:10:12;;;;;;;14.35;2.33;;;;;;;;;;5100455;28;20600;-75
2024/01/24 11:12:44;;;;;;;11.57;2.25;;;;;;;;;;5101543;28;20066;-76
2024/01/24 11:15:15;;;;;;;31.77;5.32;;;;;;;;;;5101497;28;20113;-77
2024/01/24 11:17:46;;;;;;;29.88;12.75;;;;;;;;;;5101366;28;20051;-79
2024/01/24 11:20:21;;;;;;;10.88;1.92;;;;;;;;;;5100790;28;20055;-76
2024/01/24 11:22:51;;;;;;;8.13;1.52;;;;;;;;;;5099842;28;20040;-76
2024/01/24 11:25:38;;;;;;;9.55;1.33;;;;;;;;;;5100223;28;20497;-77
2024/01/24 11:28:08;;;;;;;8.10;1.25;;;;;;;;;;5100063;28;20051;-77
2024/01/24 11:30:39;;;;;;;14.02;1.73;;;;;;;;;;5100569;28;20055;-76
2024/01/24 11:33:16;;;;;;;7.65;1.40;;;;;;;;;;5100732;28;20050;-77
2024/01/24 11:35:50;;;;;;;5.18;1.10;;;;;;;;;;5100365;28;20044;-77
2024/01/24 11:38:22;;;;;;;6.28;1.25;;;;;;;;;;5100689;28;20050;-75
2024/01/24 11:41:26;;;;;;;19.15;1.67;;;;;;;;;;5098489;28;20052;-82
2024/01/24 11:43:57;;;;;;;6.70;1.25;;;;;;;;;;5100388;28;20043;-76
2024/01/24 11:46:28;;;;;;;4.97;1.27;;;;;;;;;;5098575;28;20056;-76
2024/01/24 11:49:06;;;;;;;6.93;0.93;;;;;;;;;;5098531;28;20052;-75
2024/01/24 11:51:37;;;;;;;6.85;1.08;;;;;;;;;;5100272;28;20487;-75
2024/01/24 11:54:09;;;;;;;11.50;1.00;;;;;;;;;;5100139;28;20051;-77
2024/01/24 11:56:41;;;;;;;13.57;1.52;;;;;;;;;;5099601;28;20410;-76
2024/01/24 11:59:12;;;;;;;8.63;1.70;;;;;;;;;;5100299;28;20051;-76
2024/01/24 12:01:42;;;;;;;8.85;1.40;;;;;;;;;;5099410;28;20410;-76
2024/01/24 12:04:13;;;;;;;8.88;1.00;;;;;;;;;;5099874;28;20047;-75
2024/01/24 12:06:44;;;;;;;10.65;1.08;;;;;;;;;;5099646;28;20044;-77
2024/01/24 12:09:15;;;;;;;8.93;0.82;;;;;;;;;;5097082;28;20044;-76
2024/01/24 12:11:46;;;;;;;3.92;0.90;;;;;;;;;;5097781;28;20077;-76
2024/01/24 12:14:16;;;;;;;4.72;1.00;;;;;;;;;;5099723;28;20052;-76
2024/01/24 12:16:48;;;;;;;5.43;1.30;;;;;;;;;;5100635;28;20051;-77
2024/01/24 12:19:19;;;;;;;8.23;1.10;;;;;;;;;;5099513;28;21105;-76
2024/01/24 12:21:50;;;;;;;8.48;1.48;;;;;;;;;;5099820;28;20048;-75
2024/01/24 12:24:22;;;;;;;4.90;0.82;;;;;;;;;;5099678;28;20050;-76
2024/01/24 12:26:53;;;;;;;4.22;0.80;;;;;;;;;;5099961;28;20050;-80
2024/01/24 12:29:28;;;;;;;5.18;1.10;;;;;;;;;;5099475;28;20221;-77
2024/01/24 12:32:00;;;;;;;8.63;1.45;;;;;;;;;;5099570;28;20057;-79
2024/01/24 12:34:31;;;;;;;4.85;0.80;;;;;;;;;;5099879;28;20058;-77
2024/01/24 12:37:02;;;;;;;5.22;0.90;;;;;;;;;;5098363;28;20417;-75
2024/01/24 12:39:34;;;;;;;5.10;1.00;;;;;;;;;;5099620;28;20047;-76
2024/01/24 12:42:05;;;;;;;5.40;0.82;;;;;;;;;;5100388;28;20048;-76
2024/01/24 12:44:35;;;;;;;5.90;0.63;;;;;;;;;;5098789;28;20048;-76
2024/01/24 12:47:06;;;;;;;6.57;1.08;;;;;;;;;;5100110;28;20044;-76
2024/01/24 12:49:37;;;;;;;8.52;0.88;;;;;;;;;;5099666;28;20059;-77
2024/01/24 12:52:08;;;;;;;5.10;0.90;;;;;;;;;;5097668;28;20055;-75
2024/01/24 12:54:38;;;;;;;9.35;1.50;;;;;;;;;;5099363;28;20053;-77
2024/01/24 12:57:10;;;;;;;3.35;0.60;;;;;;;;;;5099437;28;20048;-74
2024/01/24 12:59:41;;;;;;;9.07;1.77;;;;;;;;;;5099716;28;20051;-76
2024/01/24 13:02:13;;;;;;;6.15;1.17;;;;;;;;;;5099760;28;20052;-76
2024/01/24 13:04:45;;;;;;;7.95;0.82;;;;;;;;;;5099974;28;20051;-78
2024/01/24 13:07:16;;;;;;;8.75;1.00;;;;;;;;;;5100383;28;20047;-76
2024/01/24 13:09:46;;;;;;;9.95;1.02;;;;;;;;;;5098037;28;20052;-77
2024/01/24 13:12:25;;;;;;;8.52;1.17;;;;;;;;;;5099913;28;20039;-76
2024/01/24 13:14:57;;;;;;;9.95;1.02;;;;;;;;;;5097358;28;20421;-75
2024/01/24 13:17:27;;;;;;;4.35;1.10;;;;;;;;;;5097295;28;20122;-76
2024/01/24 13:19:58;;;;;;;14.00;2.10;;;;;;;;;;5099066;28;20055;-79
2024/01/24 13:22:31;;;;;;;31.08;4.35;;;;;;;;;;5103342;28;20051;-77
2024/01/24 13:25:03;;;;;;;6.13;1.00;;;;;;;;;;5103773;28;20061;-75
2024/01/24 13:27:33;;;;;;;9.13;1.10;;;;;;;;;;5103341;28;20039;-76
2024/01/24 13:30:05;;;;;;;10.38;1.33;;;;;;;;;;5102503;28;20054;-77
2024/01/24 13:32:40;;;;;;;5.70;0.80;;;;;;;;;;5102896;28;20055;-76
2024/01/24 13:35:10;;;;;;;10.65;0.95;;;;;;;;;;5102994;28;20052;-77
2024/01/24 13:37:40;;;;;;;5.65;0.88;;;;;;;;;;5102820;28;20044;-74
2024/01/24 13:40:11;;;;;;;5.55;1.02;;;;;;;;;;5103188;28;20058;-79
2024/01/24 13:42:43;;;;;;;5.55;0.80;;;;;;;;;;5102866;28;20062;-77
2024/01/24 13:45:14;;;;;;;5.13;0.73;;;;;;;;;;5102913;28;20798;-76
2024/01/24 13:47:44;;;;;;;7.47;1.48;;;;;;;;;;5102281;28;20675;-76
2024/01/24 13:50:14;;;;;;;4.00;0.85;;;;;;;;;;5102889;28;20047;-76
2024/01/24 13:52:45;;;;;;;4.35;1.00;;;;;;;;;;5102772;28;20533;-76
2024/01/24 13:55:16;;;;;;;9.95;1.27;;;;;;;;;;5101700;27;20059;-75
2024/01/24 13:57:48;;;;;;;8.82;1.23;;;;;;;;;;5103036;28;20044;-75
2024/01/24 14:00:20;;;;;;;8.75;1.20;;;;;;;;;;5103687;28;20052;-76
2024/01/24 14:02:50;;;;;;;6.18;1.13;;;;;;;;;;5103113;28;20047;-77
2024/01/24 14:05:22;;;;;;;13.15;3.35;;;;;;;;;;5105154;28;20055;-75
2024/01/24 14:07:52;;;;;;;8.75;1.23;;;;;;;;;;5104180;28;20051;-77
2024/01/24 14:10:24;;;;;;;6.20;1.20;;;;;;;;;;5106692;28;20631;-76
2024/01/24 14:12:56;;;;;;;8.05;1.17;;;;;;;;;;5103647;28;20399;-77
2024/01/24 14:15:27;;;;;;;10.23;1.50;;;;;;;;;;5105150;28;20047;-75
2024/01/24 14:18:05;;;;;;;20.23;2.97;;;;;;;;;;5105386;28;20048;-76
2024/01/24 14:20:36;;;;;;;11.85;1.45;;;;;;;;;;5103660;28;20474;-76
2024/01/24 14:23:08;;;;;;;10.02;1.50;;;;;;;;;;5103967;28;20040;-76
2024/01/24 14:25:40;;;;;;;43.20;4.97;;;;;;;;;;5105146;28;20055;-76
2024/01/24 14:28:10;;;;;;;23.30;3.22;;;;;;;;;;5105065;28;20528;-75
2024/01/24 14:30:40;;;;;;;8.95;1.20;;;;;;;;;;5104397;28;20046;-74
2024/01/24 14:33:11;;;;;;;5.10;0.93;;;;;;;;;;5104077;28;20050;-80
2024/01/24 14:35:52;;;;;;;6.05;0.93;;;;;;;;;;5105259;28;20052;-76
2024/01/24 14:38:23;;;;;;;8.63;0.90;;;;;;;;;;5104836;28;20414;-80
2024/01/24 14:40:53;;;;;;;12.73;1.10;;;;;;;;;;5104912;28;20059;-77
2024/01/24 14:43:24;;;;;;;9.43;1.20;;;;;;;;;;5104733;28;20482;-74
2024/01/24 14:45:54;;;;;;;8.93;1.20;;;;;;;;;;5105583;28;20051;-76
2024/01/24 14:48:26;;;;;;;16.88;1.25;;;;;;;;;;5104483;28;20043;-78
2024/01/24 14:50:56;;;;;;;6.15;1.27;;;;;;;;;;5104539;28;20406;-76
2024/01/24 14:53:27;;;;;;;9.20;1.25;;;;;;;;;;5103085;27;20073;-76
2024/01/24 14:55:58;;;;;;;5.07;1.02;;;;;;;;;;5104363;28;20391;-75
2024/01/24 14:58:30;;;;;;;6.85;0.82;;;;;;;;;;5104025;28;20051;-76
2024/01/24 15:01:01;;;;;;;3.47;0.82;;;;;;;;;;5102366;28;20067;-76
2024/01/24 15:03:31;;;;;;;4.95;1.00;;;;;;;;;;5104189;28;20058;-75